createdAt,value
2023-05-02T00:01:49.607Z,6.41
2023-05-02T00:04:16.639Z,6.35
2023-05-02T00:06:43.594Z,6.38
2023-05-02T00:09:10.653Z,6.38
2023-05-02T00:11:37.549Z,6.32
2023-05-02T00:14:04.491Z,6.51
2023-05-02T00:16:33.626Z,6.52
2023-05-02T00:19:00.555Z,6.60
2023-05-02T00:21:27.369Z,6.49
2023-05-02T00:23:54.230Z,6.47
2023-05-02T00:26:21.180Z,6.53
2023-05-02T00:28:47.984Z,6.66
2023-05-02T00:31:15.059Z,6.61
2023-05-02T00:33:41.961Z,6.39
2023-05-02T00:36:19.506Z,6.31
2023-05-02T00:38:46.549Z,6.40
2023-05-02T00:41:13.395Z,6.15
2023-05-02T00:43:40.328Z,6.18
2023-05-02T00:46:07.452Z,6.15
2023-05-02T00:48:35.569Z,6.16
2023-05-02T00:51:04.670Z,6.06
2023-05-02T00:53:32.123Z,5.97
2023-05-02T00:55:59.691Z,5.74
2023-05-02T00:58:27.864Z,5.48
2023-05-02T01:01:07.525Z,5.28
2023-05-02T01:04:04.862Z,5.35
2023-05-02T01:06:44.258Z,5.58
2023-05-02T01:09:23.130Z,5.84
2023-05-02T01:12:04.440Z,5.66
2023-05-02T01:14:42.917Z,5.42
2023-05-02T01:17:14.177Z,5.57
2023-05-02T01:19:47.730Z,5.59
2023-05-02T01:22:16.544Z,5.75
2023-05-02T01:24:48.907Z,5.90
2023-05-02T01:27:43.731Z,5.87
2023-05-02T01:30:12.722Z,5.72
2023-05-02T01:32:41.861Z,5.53
2023-05-02T01:35:10.926Z,5.40
2023-05-02T01:37:40.207Z,5.37
2023-05-02T01:40:09.714Z,5.41
2023-05-02T01:42:38.326Z,5.40
2023-05-02T01:45:08.038Z,5.38
2023-05-02T01:47:36.719Z,5.18
2023-05-02T01:50:09.152Z,4.95
2023-05-02T01:52:37.036Z,5.22
2023-05-02T01:55:06.348Z,5.42
2023-05-02T01:57:33.496Z,5.49
2023-05-02T02:00:02.156Z,5.25
2023-05-02T02:02:30.690Z,4.94
2023-05-02T02:04:59.977Z,4.72
2023-05-02T02:07:26.920Z,4.65
2023-05-02T02:09:53.876Z,4.67
2023-05-02T02:12:28.567Z,4.98
2023-05-02T02:15:13.790Z,4.75
2023-05-02T02:17:44.754Z,4.49
2023-05-02T02:20:13.490Z,4.69
2023-05-02T02:22:42.933Z,4.66
2023-05-02T02:25:17.724Z,4.63
2023-05-02T02:27:44.647Z,4.77
2023-05-02T02:30:11.945Z,4.81
2023-05-02T02:32:39.146Z,4.95
2023-05-02T02:35:06.638Z,4.97
2023-05-02T02:37:37.860Z,5.03
2023-05-02T02:40:08.615Z,5.09
2023-05-02T02:43:12.685Z,5.16
2023-05-02T02:45:46.415Z,5.05
2023-05-02T02:48:47.973Z,4.99
2023-05-02T02:51:26.105Z,4.96
2023-05-02T02:54:19.115Z,4.86
2023-05-02T02:57:02.063Z,4.70
2023-05-02T02:59:38.700Z,4.76
2023-05-02T03:02:08.903Z,4.74
2023-05-02T03:04:39.686Z,4.81
2023-05-02T03:07:06.582Z,4.95
2023-05-02T03:09:43.933Z,4.98
2023-05-02T03:12:11.460Z,4.81
2023-05-02T03:14:39.358Z,4.94
2023-05-02T03:17:07.113Z,4.84
2023-05-02T03:19:34.442Z,4.84
2023-05-02T03:22:01.186Z,5.00
2023-05-02T03:24:28.079Z,5.08
2023-05-02T03:26:56.228Z,4.89
2023-05-02T03:29:23.213Z,4.45
2023-05-02T03:31:50.096Z,4.54
2023-05-02T03:34:16.926Z,4.80
2023-05-02T03:36:43.795Z,5.06
2023-05-02T03:39:10.667Z,5.02
2023-05-02T03:41:37.418Z,5.04
2023-05-02T03:44:04.550Z,5.30
2023-05-02T03:46:31.515Z,5.12
2023-05-02T03:48:58.653Z,5.27
2023-05-02T03:51:25.443Z,5.37
2023-05-02T03:53:52.430Z,5.49
2023-05-02T03:56:19.880Z,5.61
2023-05-02T03:58:47.046Z,5.81
2023-05-02T04:01:15.034Z,6.20
2023-05-02T04:03:42.341Z,6.68
2023-05-02T04:06:09.251Z,6.93
2023-05-02T04:08:36.125Z,7.11
2023-05-02T04:11:02.934Z,6.66
2023-05-02T04:13:29.806Z,6.95
2023-05-02T04:15:56.915Z,7.30
2023-05-02T04:18:23.688Z,7.59
2023-05-02T04:20:50.789Z,7.72
2023-05-02T04:23:17.704Z,7.96
2023-05-02T04:25:54.685Z,7.84
2023-05-02T04:28:23.061Z,8.07
2023-05-02T04:30:50.596Z,8.06
2023-05-02T04:33:18.289Z,8.05
2023-05-02T04:35:46.253Z,7.79
2023-05-02T04:38:13.090Z,7.73
2023-05-02T04:40:40.265Z,7.66
2023-05-02T04:43:07.531Z,7.89
2023-05-02T04:45:37.546Z,7.75
2023-05-02T04:48:05.067Z,7.74
2023-05-02T04:50:32.097Z,7.73
2023-05-02T04:52:58.912Z,7.57
2023-05-02T04:55:25.680Z,7.59
2023-05-02T04:57:52.581Z,7.87
2023-05-02T05:00:19.552Z,7.95
2023-05-02T05:02:46.374Z,7.96
2023-05-02T05:05:13.413Z,8.08
2023-05-02T05:07:40.222Z,8.03
2023-05-02T05:10:07.647Z,7.80
2023-05-02T05:12:34.545Z,8.24
2023-05-02T05:15:01.404Z,8.37
2023-05-02T05:17:28.297Z,8.60
2023-05-02T05:19:55.208Z,8.52
2023-05-02T05:22:22.047Z,8.04
2023-05-02T05:24:54.955Z,8.38
2023-05-02T05:27:22.182Z,8.38
2023-05-02T05:29:49.022Z,8.60
2023-05-02T05:32:15.897Z,8.60
2023-05-02T05:34:42.726Z,8.50
2023-05-02T05:37:09.576Z,8.68
2023-05-02T05:39:36.615Z,8.67
2023-05-02T05:42:03.414Z,8.73
2023-05-02T05:44:30.140Z,9.01
2023-05-02T05:46:56.995Z,9.24
2023-05-02T05:49:23.955Z,9.01
2023-05-02T05:51:50.711Z,8.97
2023-05-02T05:54:17.926Z,9.07
2023-05-02T05:56:45.312Z,9.15
2023-05-02T05:59:12.460Z,9.37
2023-05-02T06:01:39.530Z,9.96
2023-05-02T06:04:06.949Z,10.22
2023-05-02T06:06:34.431Z,10.22
2023-05-02T06:09:01.848Z,10.17
2023-05-02T06:11:29.224Z,10.53
2023-05-02T06:13:56.169Z,10.96
2023-05-02T06:16:23.052Z,11.53
2023-05-02T06:18:51.775Z,11.93
2023-05-02T06:21:18.743Z,12.14
2023-05-02T06:23:45.656Z,11.95
2023-05-02T06:26:12.483Z,11.44
2023-05-02T06:28:39.267Z,11.51
2023-05-02T06:31:06.491Z,11.73
2023-05-02T06:33:34.744Z,11.72
2023-05-02T06:36:02.204Z,11.48
2023-05-02T06:38:29.790Z,11.36
2023-05-02T06:40:56.670Z,11.54
2023-05-02T06:43:23.580Z,11.82
2023-05-02T06:45:54.171Z,12.30
2023-05-02T06:48:21.178Z,11.94
2023-05-02T06:50:48.866Z,12.04
2023-05-02T06:53:15.902Z,12.26
2023-05-02T06:55:42.993Z,12.48
2023-05-02T06:58:10.001Z,12.40
2023-05-02T07:00:37.021Z,12.03
2023-05-02T07:03:04.229Z,11.62
2023-05-02T07:05:31.147Z,11.45
2023-05-02T07:07:58.098Z,11.38
2023-05-02T07:10:25.080Z,11.85
2023-05-02T07:12:51.981Z,12.11
2023-05-02T07:15:19.133Z,11.80
2023-05-02T07:17:46.043Z,11.91
2023-05-02T07:20:12.916Z,12.27
2023-05-02T07:22:39.901Z,12.18
2023-05-02T07:25:06.897Z,12.66
2023-05-02T07:27:33.797Z,12.42
2023-05-02T07:30:01.057Z,12.52
2023-05-02T07:32:28.290Z,12.37
2023-05-02T07:34:58.098Z,12.54
2023-05-02T07:37:24.893Z,12.97
2023-05-02T07:39:51.843Z,12.89
2023-05-02T07:42:18.771Z,13.45
2023-05-02T07:44:45.744Z,13.14
2023-05-02T07:47:12.533Z,12.68
2023-05-02T07:49:39.413Z,12.93
2023-05-02T07:52:06.233Z,12.94
2023-05-02T07:54:33.023Z,13.04
2023-05-02T07:56:59.845Z,12.89
2023-05-02T07:59:26.746Z,12.75
2023-05-02T08:01:53.617Z,13.24
2023-05-02T08:04:20.617Z,13.57
2023-05-02T08:06:47.649Z,14.18
2023-05-02T08:09:14.506Z,14.35
2023-05-02T08:11:41.355Z,14.40
2023-05-02T08:14:08.292Z,13.85
2023-05-02T08:16:35.438Z,13.85
2023-05-02T08:19:02.364Z,14.04
2023-05-02T08:21:29.417Z,14.13
2023-05-02T08:23:58.836Z,13.90
2023-05-02T08:26:26.266Z,13.91
2023-05-02T08:28:53.751Z,14.19
2023-05-02T08:31:21.247Z,14.66
2023-05-02T08:33:48.337Z,13.95
2023-05-02T08:36:17.465Z,13.29
2023-05-02T08:38:45.780Z,13.58
2023-05-02T08:41:19.135Z,14.41
2023-05-02T08:43:47.070Z,14.71
2023-05-02T08:46:15.542Z,14.81
2023-05-02T08:48:44.872Z,14.44
2023-05-02T08:51:13.714Z,14.43
2023-05-02T08:53:41.590Z,14.74
2023-05-02T08:56:09.988Z,14.99
2023-05-02T08:58:38.637Z,14.42
2023-05-02T09:01:20.122Z,14.54
2023-05-02T09:03:48.408Z,14.38
2023-05-02T09:06:21.396Z,14.59
2023-05-02T09:08:51.882Z,15.07
2023-05-02T09:11:19.615Z,15.32
2023-05-02T09:13:48.719Z,14.53
2023-05-02T09:16:20.922Z,14.90
2023-05-02T09:18:49.767Z,14.81
2023-05-02T09:21:20.648Z,14.80
2023-05-02T09:23:53.222Z,14.81
2023-05-02T09:26:25.767Z,15.15
2023-05-02T09:28:55.002Z,15.01
2023-05-02T09:31:49.884Z,14.56
2023-05-02T09:34:16.225Z,14.38
2023-05-02T09:36:47.752Z,14.66
2023-05-02T09:39:16.907Z,15.12
2023-05-02T09:41:45.899Z,15.28
2023-05-02T09:44:19.722Z,15.64
2023-05-02T09:46:49.197Z,15.56
2023-05-02T09:49:16.977Z,15.53
2023-05-02T09:51:44.075Z,15.36
2023-05-02T09:54:11.079Z,14.91
2023-05-02T09:56:54.416Z,15.15
2023-05-02T09:59:21.307Z,15.31
2023-05-02T10:01:56.093Z,15.16
2023-05-02T10:04:23.251Z,15.07
2023-05-02T10:06:52.208Z,15.18
2023-05-02T10:09:21.723Z,15.77
2023-05-02T10:11:53.859Z,15.71
2023-05-02T10:14:23.003Z,16.11
2023-05-02T10:17:08.848Z,15.77
2023-05-02T10:19:38.460Z,15.76
2023-05-02T10:22:06.511Z,15.60
2023-05-02T10:24:33.467Z,15.83
2023-05-02T10:27:00.926Z,16.10
2023-05-02T10:29:31.947Z,15.97
2023-05-02T10:32:02.567Z,15.71
2023-05-02T10:34:32.932Z,15.46
2023-05-02T10:36:59.824Z,15.61
2023-05-02T10:39:28.346Z,15.76
2023-05-02T10:41:58.087Z,15.82
2023-05-02T10:44:38.008Z,16.11
2023-05-02T10:47:20.819Z,16.05
2023-05-02T10:50:01.826Z,16.48
2023-05-02T10:52:31.554Z,16.85
2023-05-02T10:55:17.562Z,17.53
2023-05-02T10:57:59.455Z,17.73
2023-05-02T11:00:34.488Z,16.45
2023-05-02T11:03:02.598Z,16.17
2023-05-02T11:05:29.973Z,16.16
2023-05-02T11:08:15.447Z,15.85
2023-05-02T11:10:43.798Z,15.89
2023-05-02T11:13:10.704Z,16.06
2023-05-02T11:15:40.591Z,16.84
2023-05-02T11:18:12.669Z,16.60
2023-05-02T11:20:44.223Z,15.67
2023-05-02T11:23:17.145Z,15.72
2023-05-02T11:25:47.630Z,15.99
2023-05-02T11:28:45.447Z,16.08
2023-05-02T11:31:27.528Z,15.54
2023-05-02T11:34:02.204Z,15.12
2023-05-02T11:36:33.800Z,15.40
2023-05-02T11:39:04.804Z,16.26
2023-05-02T11:41:50.319Z,16.05
2023-05-02T11:44:17.208Z,16.23
2023-05-02T11:46:45.047Z,16.10
2023-05-02T11:49:15.282Z,16.55
2023-05-02T11:51:42.376Z,16.24
2023-05-02T11:54:09.287Z,16.08
2023-05-02T11:56:36.286Z,16.00
2023-05-02T11:59:04.287Z,16.15
2023-05-02T12:01:31.098Z,16.50
2023-05-02T12:04:08.718Z,16.75
2023-05-02T12:06:38.019Z,17.19
2023-05-02T12:09:08.746Z,17.67
2023-05-02T12:11:36.192Z,17.35
2023-05-02T12:14:04.404Z,16.88
2023-05-02T12:16:31.939Z,16.73
2023-05-02T12:18:59.190Z,16.07
2023-05-02T12:21:28.602Z,16.07
2023-05-02T12:23:56.587Z,16.09
2023-05-02T12:26:26.672Z,16.08
2023-05-02T12:28:54.910Z,16.45
2023-05-02T12:31:23.150Z,16.44
2023-05-02T12:33:50.390Z,16.51
2023-05-02T12:36:17.734Z,16.08
2023-05-02T12:38:58.983Z,16.03
2023-05-02T12:41:37.513Z,15.87
2023-05-02T12:44:05.646Z,15.81
2023-05-02T12:46:35.158Z,15.81
2023-05-02T12:49:07.445Z,16.07
2023-05-02T12:51:34.629Z,15.69
2023-05-02T12:54:02.441Z,15.68
2023-05-02T12:56:29.562Z,15.71
2023-05-02T12:58:56.434Z,15.69
2023-05-02T13:01:23.246Z,15.77
2023-05-02T13:03:51.988Z,15.68
2023-05-02T13:06:18.890Z,15.81
2023-05-02T13:08:45.728Z,15.82
2023-05-02T13:11:13.014Z,16.11
2023-05-02T13:13:46.328Z,15.73
2023-05-02T13:16:13.314Z,15.91
2023-05-02T13:18:40.252Z,15.89
2023-05-02T13:21:07.195Z,15.47
2023-05-02T13:23:34.125Z,15.60
2023-05-02T13:26:00.970Z,15.80
2023-05-02T13:28:27.854Z,16.06
2023-05-02T13:30:54.908Z,16.20
2023-05-02T13:33:21.942Z,16.45
2023-05-02T13:35:48.808Z,16.72
2023-05-02T13:38:15.704Z,16.57
2023-05-02T13:40:42.706Z,16.70
2023-05-02T13:43:09.593Z,16.88
2023-05-02T13:45:36.646Z,16.70
2023-05-02T13:48:03.611Z,16.58
2023-05-02T13:50:30.492Z,17.07
2023-05-02T13:52:57.407Z,16.67
2023-05-02T13:55:24.213Z,16.47
2023-05-02T13:57:50.954Z,16.52
2023-05-02T14:00:18.078Z,16.84
2023-05-02T14:02:44.870Z,16.97
2023-05-02T14:05:11.762Z,16.72
2023-05-02T14:07:38.624Z,16.66
2023-05-02T14:10:06.097Z,17.16
2023-05-02T14:12:32.906Z,17.53
2023-05-02T14:14:59.967Z,17.30
2023-05-02T14:17:26.837Z,17.12
2023-05-02T14:19:53.719Z,16.61
2023-05-02T14:22:20.607Z,16.41
2023-05-02T14:24:47.381Z,16.35
2023-05-02T14:27:14.142Z,16.54
2023-05-02T14:29:41.219Z,16.81
2023-05-02T14:32:08.069Z,16.62
2023-05-02T14:34:34.901Z,16.63
2023-05-02T14:37:01.876Z,17.21
2023-05-02T14:39:28.746Z,17.65
2023-05-02T14:41:55.541Z,18.12
2023-05-02T14:44:22.373Z,18.30
2023-05-02T14:46:49.231Z,18.06
2023-05-02T14:49:16.146Z,18.32
2023-05-02T14:51:43.089Z,18.35
2023-05-02T14:54:09.959Z,18.24
2023-05-02T14:56:36.849Z,18.43
2023-05-02T14:59:03.796Z,18.71
2023-05-02T15:01:30.820Z,18.98
2023-05-02T15:04:06.642Z,19.16
2023-05-02T15:06:34.932Z,19.16
2023-05-02T15:09:02.182Z,19.27
2023-05-02T15:11:28.990Z,19.49
2023-05-02T15:13:57.494Z,19.73
2023-05-02T15:16:26.092Z,19.07
2023-05-02T15:18:52.921Z,17.43
2023-05-02T15:21:19.933Z,16.92
2023-05-02T15:23:46.798Z,16.54
2023-05-02T15:26:13.762Z,16.25
2023-05-02T15:28:43.124Z,16.38
2023-05-02T15:31:09.986Z,16.03
2023-05-02T15:33:38.158Z,15.71
2023-05-02T15:36:05.218Z,15.49
2023-05-02T15:38:32.214Z,15.59
2023-05-02T15:41:03.585Z,16.04
2023-05-02T15:43:30.780Z,16.55
2023-05-02T15:45:59.501Z,16.92
2023-05-02T15:48:33.470Z,17.30
2023-05-02T15:51:00.730Z,17.61
2023-05-02T15:53:28.570Z,17.84
2023-05-02T15:55:55.495Z,17.97
2023-05-02T15:58:22.395Z,17.89
2023-05-02T16:00:49.256Z,17.95
2023-05-02T16:03:16.213Z,17.90
2023-05-02T16:05:43.149Z,17.91
2023-05-02T16:08:09.921Z,17.84
2023-05-02T16:10:37.361Z,17.81
2023-05-02T16:13:04.180Z,17.69
2023-05-02T16:15:33.864Z,17.40
2023-05-02T16:18:00.878Z,17.43
2023-05-02T16:20:27.833Z,17.46
2023-05-02T16:22:57.133Z,17.43
2023-05-02T16:25:23.987Z,17.34
2023-05-02T16:27:50.861Z,17.30
2023-05-02T16:30:17.915Z,17.30
2023-05-02T16:32:45.072Z,17.20
2023-05-02T16:35:12.132Z,17.23
2023-05-02T16:37:40.825Z,17.20
2023-05-02T16:40:11.316Z,17.15
2023-05-02T16:42:38.667Z,17.06
2023-05-02T16:45:06.137Z,16.92
2023-05-02T16:47:36.039Z,16.78
2023-05-02T16:50:03.596Z,16.70
2023-05-02T16:52:30.641Z,16.64
2023-05-02T16:54:57.532Z,16.41
2023-05-02T16:57:24.420Z,16.27
2023-05-02T16:59:52.839Z,16.16
2023-05-02T17:02:21.099Z,15.97
2023-05-02T17:04:49.411Z,16.00
2023-05-02T17:07:17.047Z,16.03
2023-05-02T17:09:44.441Z,15.95
2023-05-02T17:12:12.471Z,15.96
2023-05-02T17:14:40.240Z,15.96
2023-05-02T17:17:07.520Z,15.92
2023-05-02T17:19:34.534Z,15.76
2023-05-02T17:22:02.098Z,15.63
2023-05-02T17:24:29.383Z,15.61
2023-05-02T17:26:56.390Z,15.48
2023-05-02T17:29:23.287Z,15.49
2023-05-02T17:31:50.515Z,15.58
2023-05-02T17:34:17.645Z,15.59
2023-05-02T17:36:47.381Z,15.61
2023-05-02T17:39:14.465Z,15.60
2023-05-02T17:41:41.362Z,15.44
2023-05-02T17:44:08.182Z,15.38
2023-05-02T17:46:35.143Z,15.30
2023-05-02T17:49:02.045Z,15.15
2023-05-02T17:51:28.970Z,14.88
2023-05-02T17:53:55.889Z,14.76
2023-05-02T17:56:22.714Z,14.70
2023-05-02T17:58:49.509Z,14.65
2023-05-02T18:01:16.539Z,14.45
2023-05-02T18:03:43.504Z,14.32
2023-05-02T18:06:16.410Z,14.12
2023-05-02T18:08:45.433Z,14.11
2023-05-02T18:11:17.196Z,13.84
2023-05-02T18:13:45.013Z,13.92
2023-05-02T18:16:12.410Z,13.78
2023-05-02T18:18:39.480Z,13.89
2023-05-02T18:21:06.481Z,13.89
2023-05-02T18:23:33.976Z,13.80
2023-05-02T18:26:04.104Z,13.82
2023-05-02T18:28:30.965Z,13.54
2023-05-02T18:30:57.897Z,13.31
2023-05-02T18:33:24.859Z,13.27
2023-05-02T18:35:51.870Z,13.25
2023-05-02T18:38:18.722Z,13.13
2023-05-02T18:40:45.822Z,13.10
2023-05-02T18:43:12.959Z,13.12
2023-05-02T18:45:40.410Z,13.16
2023-05-02T18:48:07.594Z,13.10
2023-05-02T18:50:34.505Z,13.08
2023-05-02T18:53:01.380Z,13.13
2023-05-02T18:55:28.247Z,13.16
2023-05-02T18:57:55.210Z,13.17
2023-05-02T19:00:22.281Z,13.17
2023-05-02T19:02:52.166Z,13.18
2023-05-02T19:05:19.315Z,13.17
2023-05-02T19:07:46.284Z,13.18
2023-05-02T19:10:13.266Z,13.18
2023-05-02T19:12:42.594Z,13.21
2023-05-02T19:15:12.085Z,13.17
2023-05-02T19:17:40.828Z,13.17
2023-05-02T19:20:08.707Z,13.18
2023-05-02T19:22:35.881Z,13.12
2023-05-02T19:25:05.499Z,13.05
2023-05-02T19:27:32.567Z,12.98
2023-05-02T19:29:59.406Z,12.92
2023-05-02T19:32:26.533Z,12.89
2023-05-02T19:34:53.506Z,12.81
2023-05-02T19:37:20.483Z,12.69
2023-05-02T19:39:47.326Z,12.70
2023-05-02T19:42:14.305Z,12.73
2023-05-02T19:44:41.357Z,12.68
2023-05-02T19:47:08.310Z,12.75
2023-05-02T19:49:35.310Z,12.79
2023-05-02T19:52:02.170Z,12.84
2023-05-02T19:54:32.324Z,12.76
2023-05-02T19:56:59.766Z,12.82
2023-05-02T19:59:26.690Z,12.79
2023-05-02T20:01:53.480Z,12.63
2023-05-02T20:04:23.250Z,12.62
2023-05-02T20:06:50.178Z,12.64
2023-05-02T20:09:20.310Z,12.69
2023-05-02T20:11:47.196Z,12.54
2023-05-02T20:14:14.013Z,12.59
2023-05-02T20:16:40.887Z,12.61
2023-05-02T20:19:07.872Z,12.68
2023-05-02T20:21:34.755Z,12.64
2023-05-02T20:24:01.563Z,12.68
2023-05-02T20:26:31.081Z,12.74
2023-05-02T20:28:57.901Z,12.74
2023-05-02T20:31:27.665Z,12.71
2023-05-02T20:33:54.746Z,12.73
2023-05-02T20:36:21.623Z,12.39
2023-05-02T20:38:48.369Z,12.40
2023-05-02T20:41:15.252Z,12.38
2023-05-02T20:43:42.153Z,12.27
2023-05-02T20:46:10.297Z,12.03
2023-05-02T20:48:37.390Z,12.02
2023-05-02T20:51:04.422Z,12.07
2023-05-02T20:53:31.270Z,12.08
2023-05-02T20:55:58.196Z,12.11
2023-05-02T20:58:24.976Z,12.11
2023-05-02T21:00:51.781Z,12.08
2023-05-02T21:03:19.267Z,11.87
2023-05-02T21:05:50.777Z,11.82
2023-05-02T21:08:17.745Z,11.69
2023-05-02T21:10:46.290Z,11.51
2023-05-02T21:13:13.433Z,11.47
2023-05-02T21:15:40.944Z,11.36
2023-05-02T21:18:08.091Z,10.79
2023-05-02T21:20:35.016Z,10.15
2023-05-02T21:23:02.687Z,10.18
2023-05-02T21:25:29.737Z,10.14
2023-05-02T21:27:56.599Z,10.12
2023-05-02T21:30:23.589Z,10.19
2023-05-02T21:32:50.427Z,10.54
2023-05-02T21:35:17.307Z,10.64
2023-05-02T21:37:44.115Z,10.26
2023-05-02T21:40:11.640Z,10.47
2023-05-02T21:42:38.437Z,10.67
2023-05-02T21:45:06.190Z,10.74
2023-05-02T21:47:33.208Z,10.87
2023-05-02T21:50:00.242Z,10.93
2023-05-02T21:52:27.380Z,10.92
2023-05-02T21:54:54.338Z,10.92
2023-05-02T21:57:21.149Z,10.88
2023-05-02T21:59:47.885Z,10.54
2023-05-02T22:02:14.812Z,10.18
2023-05-02T22:04:41.635Z,9.93
2023-05-02T22:07:08.553Z,9.96
2023-05-02T22:09:35.444Z,10.08
2023-05-02T22:12:02.225Z,10.22
2023-05-02T22:14:37.554Z,10.30
2023-05-02T22:17:10.927Z,10.49
2023-05-02T22:19:37.823Z,10.60
2023-05-02T22:22:05.241Z,10.71
2023-05-02T22:24:32.184Z,10.84
2023-05-02T22:26:59.006Z,10.69
2023-05-02T22:29:25.823Z,10.08
2023-05-02T22:31:52.832Z,10.02
2023-05-02T22:34:19.715Z,10.05
2023-05-02T22:36:46.576Z,9.87
2023-05-02T22:39:13.535Z,9.77
2023-05-02T22:41:40.346Z,9.74
2023-05-02T22:44:07.160Z,9.99
2023-05-02T22:46:34.208Z,10.19
2023-05-02T22:49:00.995Z,10.22
2023-05-02T22:51:27.930Z,10.09
2023-05-02T22:53:57.325Z,10.07
2023-05-02T22:56:24.393Z,10.01
2023-05-02T22:58:51.236Z,9.80
2023-05-02T23:01:18.220Z,9.80
2023-05-02T23:03:45.260Z,9.37
2023-05-02T23:06:12.210Z,9.14
2023-05-02T23:08:39.112Z,9.39
2023-05-02T23:11:06.053Z,9.62
2023-05-02T23:13:32.825Z,9.81
2023-05-02T23:15:59.753Z,9.72
2023-05-02T23:18:26.584Z,9.34
2023-05-02T23:20:53.441Z,8.85
2023-05-02T23:23:20.281Z,8.91
2023-05-02T23:25:47.125Z,8.97
2023-05-02T23:28:13.946Z,9.09
2023-05-02T23:30:41.018Z,9.24
2023-05-02T23:33:08.005Z,9.48
2023-05-02T23:35:35.850Z,9.57
2023-05-02T23:38:06.669Z,9.58
2023-05-02T23:40:34.551Z,9.53
2023-05-02T23:43:01.631Z,9.61
2023-05-02T23:45:28.636Z,9.39
2023-05-02T23:47:55.470Z,9.44
2023-05-02T23:50:22.300Z,9.57
2023-05-02T23:52:49.097Z,9.70
2023-05-02T23:55:16.008Z,9.66
2023-05-02T23:57:42.852Z,9.44
